Time;durP1;ratioP1;P1;durP2;ratioP2;P2;SDS_P1;SDS_P2;PMS_P1;PMS_P2;Temp;Humidity;BMP_temperature;BMP_pressure;BME280_temperature;BME280_humidity;BME280_pressure;Samples;Min_cycle;Max_cycle;Signal;HPM_P1;HPM_P2
2022/03/24 00:01:29;;;;;;;2.00;1.30;;;24.80;28.30;;;;;;5075062;28;20388;-65
2022/03/24 00:03:55;;;;;;;1.80;1.42;;;24.90;28.40;;;;;;5074568;28;20445;-64
2022/03/24 00:06:20;;;;;;;1.83;1.20;;;24.80;28.30;;;;;;5074489;28;20388;-65
2022/03/24 00:08:46;;;;;;;2.30;1.53;;;24.80;28.30;;;;;;5073642;28;20871;-64
2022/03/24 00:11:12;;;;;;;1.80;1.17;;;24.70;28.20;;;;;;5074780;28;20466;-63
2022/03/24 00:13:37;;;;;;;1.88;1.48;;;24.70;28.40;;;;;;5074565;28;20391;-64
2022/03/24 00:16:04;;;;;;;2.00;1.30;;;24.70;28.50;;;;;;5074647;28;20380;-63
2022/03/24 00:18:32;;;;;;;1.85;1.35;;;24.60;28.40;;;;;;5073230;28;20453;-65
2022/03/24 00:20:58;;;;;;;2.00;1.40;;;24.60;28.30;;;;;;5074135;28;20387;-66
2022/03/24 00:23:24;;;;;;;1.45;1.17;;;24.50;28.30;;;;;;5074522;28;20853;-65
2022/03/24 00:25:50;;;;;;;2.15;1.58;;;24.50;28.30;;;;;;5074236;28;20486;-65
2022/03/24 00:28:15;;;;;;;2.13;1.20;;;24.50;28.40;;;;;;5074434;28;20386;-65
2022/03/24 00:30:41;;;;;;;2.00;1.17;;;24.50;28.20;;;;;;5072770;28;20764;-65
2022/03/24 00:33:07;;;;;;;1.90;1.40;;;24.50;28.20;;;;;;5074174;28;20391;-64
2022/03/24 00:35:33;;;;;;;2.30;1.40;;;24.50;28.10;;;;;;5074301;28;20936;-63
2022/03/24 00:37:59;;;;;;;1.80;1.30;;;24.40;28.10;;;;;;5074265;28;20387;-65
2022/03/24 00:40:24;;;;;;;2.20;1.40;;;24.30;28.10;;;;;;5074188;28;20395;-64
2022/03/24 00:42:50;;;;;;;2.40;1.40;;;24.30;28.30;;;;;;5073738;28;20420;-66
2022/03/24 00:45:18;;;;;;;2.57;1.30;;;24.30;28.40;;;;;;5074137;28;20398;-63
2022/03/24 00:47:45;;;;;;;1.98;1.05;;;24.30;28.30;;;;;;5073825;28;20407;-64
2022/03/24 00:50:13;;;;;;;1.60;1.10;;;24.30;28.40;;;;;;5073979;28;20411;-65
2022/03/24 00:52:42;;;;;;;2.10;1.30;;;24.20;28.20;;;;;;5073741;28;20384;-64
2022/03/24 00:55:15;;;;;;;2.42;1.30;;;24.20;28.30;;;;;;5072463;28;20794;-63
2022/03/24 00:57:42;;;;;;;1.80;1.20;;;24.20;28.50;;;;;;5072572;28;20427;-64
2022/03/24 01:00:15;;;;;;;1.58;1.20;;;24.10;28.50;;;;;;5073902;28;20431;-64
2022/03/24 01:02:41;;;;;;;1.80;1.20;;;24.20;28.50;;;;;;5073479;28;20474;-65
2022/03/24 01:05:08;;;;;;;1.80;1.47;;;24.20;28.50;;;;;;5073672;28;20551;-65
2022/03/24 01:07:35;;;;;;;1.70;1.20;;;24.10;28.50;;;;;;5073675;28;20441;-65
2022/03/24 01:10:02;;;;;;;2.20;1.30;;;24.10;28.40;;;;;;5073517;28;20498;-64
2022/03/24 01:12:28;;;;;;;1.75;1.30;;;24.00;28.50;;;;;;5073644;28;20399;-64
2022/03/24 01:14:56;;;;;;;1.90;1.33;;;24.00;28.50;;;;;;5073022;28;20372;-64
2022/03/24 01:17:25;;;;;;;2.40;1.38;;;24.00;28.70;;;;;;5073528;28;20871;-64
2022/03/24 01:19:51;;;;;;;1.67;1.35;;;24.00;28.50;;;;;;5073545;28;20416;-63
2022/03/24 01:22:17;;;;;;;1.63;1.20;;;24.00;28.40;;;;;;5072941;28;20387;-65
2022/03/24 01:24:45;;;;;;;2.80;1.40;;;24.00;28.50;;;;;;5072584;28;20395;-64
2022/03/24 01:27:14;;;;;;;1.77;1.30;;;23.90;28.30;;;;;;5073092;28;20416;-63
2022/03/24 01:29:40;;;;;;;2.10;1.23;;;23.90;28.60;;;;;;5073169;28;20447;-65
2022/03/24 01:32:07;;;;;;;1.65;1.30;;;23.90;28.60;;;;;;5073415;28;20418;-66
2022/03/24 01:34:37;;;;;;;1.90;1.40;;;23.90;28.50;;;;;;5073063;28;20505;-65
2022/03/24 01:37:05;;;;;;;1.77;1.30;;;23.90;28.50;;;;;;5072643;28;20380;-64
2022/03/24 01:39:31;;;;;;;1.88;1.25;;;23.90;28.40;;;;;;5073224;28;20375;-65
2022/03/24 01:41:57;;;;;;;1.92;1.40;;;23.80;28.30;;;;;;5072987;28;20509;-65
2022/03/24 01:44:23;;;;;;;1.70;1.10;;;23.80;28.60;;;;;;5072910;28;20392;-63
2022/03/24 01:47:00;;;;;;;1.50;1.07;;;23.80;28.60;;;;;;5072659;28;20806;-63
2022/03/24 01:49:28;;;;;;;1.65;1.35;;;23.80;28.60;;;;;;5072911;28;20482;-66
2022/03/24 01:51:54;;;;;;;1.67;1.23;;;23.80;28.50;;;;;;5072229;28;20392;-65
2022/03/24 01:54:22;;;;;;;1.57;1.27;;;23.70;28.50;;;;;;5072861;28;20513;-66
2022/03/24 01:56:48;;;;;;;1.70;1.20;;;23.70;28.70;;;;;;5072465;28;20949;-66
2022/03/24 01:59:16;;;;;;;1.80;1.33;;;23.70;28.60;;;;;;5072532;28;20486;-64
2022/03/24 02:01:43;;;;;;;1.52;1.13;;;23.70;28.60;;;;;;5071481;28;20392;-65
2022/03/24 02:04:10;;;;;;;1.85;1.33;;;23.70;28.60;;;;;;5072555;28;20530;-65
2022/03/24 02:06:36;;;;;;;1.80;1.30;;;23.70;28.50;;;;;;5072528;28;20387;-65
2022/03/24 02:09:04;;;;;;;1.60;1.20;;;23.70;28.40;;;;;;5071890;28;20386;-64
2022/03/24 02:11:30;;;;;;;2.03;1.27;;;23.60;28.50;;;;;;5072562;28;20414;-65
2022/03/24 02:13:57;;;;;;;1.92;1.25;;;23.50;28.60;;;;;;5072323;28;20384;-65
2022/03/24 02:16:27;;;;;;;1.60;1.30;;;23.60;28.60;;;;;;5072373;28;20395;-65
2022/03/24 02:18:54;;;;;;;1.80;1.30;;;23.60;28.60;;;;;;5071883;28;20416;-62
2022/03/24 02:21:19;;;;;;;1.88;1.35;;;23.60;28.50;;;;;;5072157;28;20919;-65
2022/03/24 02:23:45;;;;;;;1.60;1.20;;;23.60;28.40;;;;;;5071798;28;20478;-65
2022/03/24 02:26:12;;;;;;;1.70;1.30;;;23.50;28.40;;;;;;5070895;28;20433;-64
2022/03/24 02:28:38;;;;;;;2.10;1.20;;;23.50;28.60;;;;;;5072052;28;20403;-64
2022/03/24 02:31:04;;;;;;;1.90;1.20;;;23.50;28.70;;;;;;5071517;28;20934;-65
2022/03/24 02:33:31;;;;;;;2.20;1.27;;;23.50;28.70;;;;;;5071984;28;20922;-63
2022/03/24 02:35:57;;;;;;;1.60;1.33;;;23.50;28.70;;;;;;5071786;28;20933;-64
2022/03/24 02:38:23;;;;;;;1.50;1.27;;;23.50;28.60;;;;;;5071429;28;20387;-65
2022/03/24 02:40:52;;;;;;;1.67;1.30;;;23.40;28.50;;;;;;5071491;28;20906;-65
2022/03/24 02:43:20;;;;;;;2.15;1.10;;;23.40;28.60;;;;;;5071512;28;20931;-65
2022/03/24 02:45:50;;;;;;;1.88;0.98;;;23.40;28.60;;;;;;5071569;28;20430;-62
2022/03/24 02:48:16;;;;;;;1.70;1.20;;;23.40;28.60;;;;;;5071683;28;20925;-64
2022/03/24 02:50:42;;;;;;;1.73;1.20;;;23.40;28.60;;;;;;5071542;28;20419;-64
2022/03/24 02:53:09;;;;;;;2.27;1.50;;;23.40;28.40;;;;;;5071353;28;20748;-65
2022/03/24 02:55:35;;;;;;;1.88;1.30;;;23.30;28.40;;;;;;5071668;28;20395;-66
2022/03/24 02:58:01;;;;;;;1.70;1.20;;;23.30;28.50;;;;;;5070415;28;20384;-64
2022/03/24 03:00:27;;;;;;;2.10;1.30;;;23.30;28.50;;;;;;5071695;28;20391;-65
2022/03/24 03:02:53;;;;;;;1.80;1.30;;;23.30;28.50;;;;;;5070768;28;20872;-65
2022/03/24 03:05:21;;;;;;;1.77;1.20;;;23.30;28.50;;;;;;5071172;28;20380;-64
2022/03/24 03:07:47;;;;;;;2.10;1.45;;;23.30;28.40;;;;;;5071490;28;20376;-63
2022/03/24 03:10:13;;;;;;;2.10;1.38;;;23.30;28.40;;;;;;5071397;28;20455;-65
2022/03/24 03:12:40;;;;;;;1.50;1.10;;;23.20;28.40;;;;;;5071544;28;20496;-65
2022/03/24 03:15:06;;;;;;;2.05;1.48;;;23.20;28.50;;;;;;5071145;28;20395;-65
2022/03/24 03:17:33;;;;;;;1.85;1.15;;;23.20;28.60;;;;;;5071549;28;20727;-65
2022/03/24 03:19:59;;;;;;;1.30;1.00;;;23.30;28.70;;;;;;5071420;28;20396;-63
2022/03/24 03:22:26;;;;;;;1.40;1.17;;;23.20;28.50;;;;;;5070909;28;20437;-64
2022/03/24 03:24:52;;;;;;;1.70;1.20;;;23.20;28.50;;;;;;5071020;28;20441;-64
2022/03/24 03:27:18;;;;;;;1.58;1.20;;;23.10;28.50;;;;;;5071279;28;20852;-65
2022/03/24 03:29:44;;;;;;;1.80;1.20;;;23.10;28.50;;;;;;5071273;28;20590;-66
2022/03/24 03:32:11;;;;;;;1.52;1.10;;;23.10;28.50;;;;;;5071516;28;20407;-65
2022/03/24 03:34:37;;;;;;;1.70;1.25;;;23.20;28.50;;;;;;5071318;28;20427;-62
2022/03/24 03:37:04;;;;;;;1.70;1.10;;;23.20;28.40;;;;;;5071024;28;20382;-65
2022/03/24 03:39:30;;;;;;;2.30;1.15;;;23.10;28.30;;;;;;5071312;28;20402;-65
2022/03/24 03:41:57;;;;;;;1.90;1.30;;;23.10;28.40;;;;;;5071202;28;20383;-63
2022/03/24 03:44:23;;;;;;;1.63;1.00;;;23.00;28.40;;;;;;5071256;28;20449;-65
2022/03/24 03:46:50;;;;;;;1.42;1.13;;;23.10;28.50;;;;;;5070817;28;20459;-65
2022/03/24 03:49:16;;;;;;;1.50;1.07;;;23.10;28.40;;;;;;5070889;28;20483;-65
2022/03/24 03:51:42;;;;;;;1.85;1.10;;;23.10;28.40;;;;;;5071135;28;20400;-65
2022/03/24 03:54:08;;;;;;;1.40;1.10;;;23.00;28.20;;;;;;5071236;28;20382;-64
2022/03/24 03:56:34;;;;;;;2.10;1.10;;;23.00;28.30;;;;;;5069794;28;20417;-65
2022/03/24 03:59:00;;;;;;;1.70;1.10;;;23.00;28.40;;;;;;5069438;28;20389;-65
2022/03/24 04:01:26;;;;;;;1.60;1.13;;;23.00;28.50;;;;;;5070904;28;20406;-66
2022/03/24 04:03:52;;;;;;;1.65;1.20;;;23.00;28.50;;;;;;5069623;28;20388;-64
2022/03/24 04:06:18;;;;;;;2.43;1.20;;;23.00;28.50;;;;;;5071016;28;20428;-63
2022/03/24 04:08:44;;;;;;;1.65;1.17;;;23.00;28.50;;;;;;5070243;28;20471;-66
2022/03/24 04:11:12;;;;;;;3.63;1.70;;;22.90;28.50;;;;;;5070154;28;20416;-65
2022/03/24 04:13:40;;;;;;;3.10;1.98;;;22.90;29.00;;;;;;5070739;28;20479;-65
2022/03/24 04:16:11;;;;;;;3.40;1.88;;;22.90;29.60;;;;;;5073879;28;20798;-64
2022/03/24 04:18:43;;;;;;;2.15;1.50;;;23.00;30.00;;;;;;5073231;28;20392;-65
2022/03/24 04:21:10;;;;;;;2.00;1.50;;;23.00;30.00;;;;;;5072837;28;20403;-63
2022/03/24 04:23:37;;;;;;;3.15;1.50;;;23.00;29.70;;;;;;5074263;28;20396;-63
2022/03/24 04:26:03;;;;;;;2.47;1.45;;;23.00;29.70;;;;;;5074528;28;20395;-62
2022/03/24 04:28:30;;;;;;;2.88;1.60;;;22.90;30.00;;;;;;5074578;28;20383;-63
2022/03/24 04:30:55;;;;;;;2.13;1.20;;;22.90;30.50;;;;;;5072744;28;20820;-64
2022/03/24 04:33:21;;;;;;;3.10;1.30;;;22.90;30.80;;;;;;5073886;28;20943;-64
2022/03/24 04:35:47;;;;;;;4.00;1.20;;;23.00;31.00;;;;;;5074356;28;20445;-63
2022/03/24 04:38:14;;;;;;;3.00;1.40;;;22.90;30.40;;;;;;5074259;28;20390;-64
2022/03/24 04:40:40;;;;;;;3.17;1.40;;;22.90;30.00;;;;;;5072919;28;20396;-63
2022/03/24 04:43:06;;;;;;;3.10;1.20;;;22.90;30.10;;;;;;5073885;28;20732;-63
2022/03/24 04:45:33;;;;;;;3.95;1.30;;;22.90;31.50;;;;;;5072845;28;20461;-65
2022/03/24 04:48:00;;;;;;;4.40;1.30;;;23.00;31.70;;;;;;5074024;28;20826;-63
2022/03/24 04:50:27;;;;;;;2.47;1.20;;;23.00;31.50;;;;;;5073921;28;20411;-64
2022/03/24 04:52:52;;;;;;;2.35;1.20;;;23.00;30.80;;;;;;5072598;28;20396;-63
2022/03/24 04:55:18;;;;;;;6.55;1.50;;;22.90;30.70;;;;;;5072837;28;20388;-62
2022/03/24 04:57:44;;;;;;;2.03;1.13;;;22.90;31.00;;;;;;5074056;28;20376;-65
2022/03/24 05:00:11;;;;;;;2.30;1.23;;;22.90;31.30;;;;;;5072662;28;20388;-65
2022/03/24 05:02:40;;;;;;;2.53;1.20;;;22.90;31.60;;;;;;5073777;28;20388;-64
2022/03/24 05:05:06;;;;;;;2.53;1.10;;;22.90;31.10;;;;;;5073335;28;20483;-63
2022/03/24 05:07:32;;;;;;;2.05;1.13;;;22.90;30.80;;;;;;5072657;28;20888;-63
2022/03/24 05:09:58;;;;;;;2.50;1.40;;;22.90;30.70;;;;;;5073894;28;20515;-65
2022/03/24 05:12:24;;;;;;;3.10;1.20;;;22.80;30.60;;;;;;5072411;28;20395;-65
2022/03/24 05:14:50;;;;;;;3.80;1.40;;;22.80;31.00;;;;;;5073294;28;20395;-63
2022/03/24 05:17:17;;;;;;;5.30;1.60;;;22.80;30.90;;;;;;5073178;28;20872;-63
2022/03/24 05:19:48;;;;;;;4.30;1.67;;;22.80;29.70;;;;;;5073541;28;20384;-64
2022/03/24 05:22:14;;;;;;;5.55;1.38;;;22.70;29.20;;;;;;5073379;28;20387;-65
2022/03/24 05:24:41;;;;;;;2.95;1.55;;;22.70;28.80;;;;;;5072809;28;20384;-65
2022/03/24 05:27:07;;;;;;;4.70;1.30;;;22.70;28.90;;;;;;5071547;28;20533;-65
2022/03/24 05:29:34;;;;;;;3.53;1.30;;;22.60;29.10;;;;;;5073288;28;20494;-64
2022/03/24 05:31:59;;;;;;;2.63;1.30;;;22.60;29.30;;;;;;5076990;28;20390;-62
2022/03/24 05:34:25;;;;;;;2.28;1.30;;;22.70;29.20;;;;;;5083875;28;20439;-63
2022/03/24 05:36:51;;;;;;;2.70;1.20;;;22.70;29.10;;;;;;5073116;28;20372;-62
2022/03/24 05:39:17;;;;;;;2.53;1.38;;;22.60;28.90;;;;;;5083605;28;20386;-63
2022/03/24 05:41:43;;;;;;;1.75;1.17;;;22.60;28.90;;;;;;5092033;28;20401;-63
2022/03/24 05:44:09;;;;;;;4.20;1.23;;;22.60;28.90;;;;;;5093530;28;20386;-64
2022/03/24 05:46:38;;;;;;;2.30;1.30;;;22.60;29.20;;;;;;5088024;28;20401;-62
2022/03/24 05:49:06;;;;;;;2.22;1.23;;;22.60;29.30;;;;;;5083223;28;20961;-62
2022/03/24 05:51:32;;;;;;;2.70;1.20;;;22.60;29.20;;;;;;5081907;28;21228;-64
2022/03/24 05:53:58;;;;;;;2.43;1.50;;;22.60;29.00;;;;;;5081200;28;20397;-64
2022/03/24 05:56:24;;;;;;;2.20;1.10;;;22.60;28.90;;;;;;5078291;28;20400;-62
2022/03/24 05:58:50;;;;;;;2.53;1.20;;;22.60;28.90;;;;;;5072796;28;20794;-62
2022/03/24 06:01:16;;;;;;;3.70;1.20;;;22.60;29.10;;;;;;5072195;28;20392;-65
2022/03/24 06:03:47;;;;;;;2.80;1.23;;;22.60;29.30;;;;;;5072472;28;20388;-62
2022/03/24 06:06:13;;;;;;;2.55;1.58;;;22.60;29.10;;;;;;5072511;28;20379;-63
2022/03/24 06:08:43;;;;;;;4.23;1.40;;;22.50;28.90;;;;;;5072541;28;20440;-63
2022/03/24 06:11:16;;;;;;;2.55;1.40;;;22.50;28.90;;;;;;5070665;28;20415;-62
2022/03/24 06:13:43;;;;;;;1.95;1.20;;;22.50;28.80;;;;;;5072432;28;20476;-63
2022/03/24 06:16:09;;;;;;;2.88;1.38;;;22.50;29.00;;;;;;5072433;28;20450;-63
2022/03/24 06:18:39;;;;;;;2.40;1.30;;;22.50;29.50;;;;;;5072082;28;20384;-63
2022/03/24 06:21:05;;;;;;;2.30;1.10;;;22.50;29.10;;;;;;5070572;28;20399;-63
2022/03/24 06:23:31;;;;;;;2.27;1.17;;;22.60;29.10;;;;;;5070815;28;20462;-63
2022/03/24 06:25:57;;;;;;;2.90;1.10;;;22.60;29.10;;;;;;5071843;28;20481;-62
2022/03/24 06:28:23;;;;;;;3.97;1.40;;;22.60;29.20;;;;;;5070825;28;20920;-64
2022/03/24 06:30:49;;;;;;;4.85;1.83;;;22.60;29.30;;;;;;5071895;28;20412;-63
2022/03/24 06:33:18;;;;;;;5.22;2.13;;;22.70;29.70;;;;;;5068961;28;20458;-65
2022/03/24 06:35:44;;;;;;;7.53;2.78;;;22.70;30.30;;;;;;5070342;28;20969;-62
2022/03/24 06:38:11;;;;;;;4.07;1.58;;;22.80;31.30;;;;;;5069312;28;20772;-64
2022/03/24 06:40:40;;;;;;;4.72;1.85;;;22.80;31.30;;;;;;5070292;28;20881;-63
2022/03/24 06:43:07;;;;;;;3.35;1.48;;;22.80;30.60;;;;;;5070440;28;20392;-66
2022/03/24 06:45:34;;;;;;;3.40;1.40;;;22.90;30.40;;;;;;5071727;28;20411;-63
2022/03/24 06:48:00;;;;;;;2.30;1.27;;;22.90;29.90;;;;;;5069426;28;20408;-63
2022/03/24 06:50:27;;;;;;;3.97;1.50;;;22.90;30.40;;;;;;5066897;28;20411;-64
2022/03/24 06:52:52;;;;;;;3.47;1.52;;;22.90;29.70;;;;;;5068937;28;20760;-63
2022/03/24 06:55:19;;;;;;;3.90;1.57;;;22.90;29.50;;;;;;5070123;28;20392;-64
2022/03/24 06:57:45;;;;;;;3.75;1.52;;;22.90;29.40;;;;;;5068920;28;20383;-62
2022/03/24 07:00:12;;;;;;;3.07;1.40;;;22.90;29.10;;;;;;5070900;28;20379;-63
2022/03/24 07:02:38;;;;;;;2.83;1.25;;;22.90;29.10;;;;;;5070575;28;20466;-63
2022/03/24 07:05:04;;;;;;;2.55;1.50;;;22.90;29.00;;;;;;5070068;28;20494;-63
2022/03/24 07:07:29;;;;;;;3.35;1.50;;;23.00;29.00;;;;;;5070074;28;20395;-64
2022/03/24 07:09:55;;;;;;;3.23;1.50;;;23.00;29.00;;;;;;5070324;28;20419;-64
2022/03/24 07:12:21;;;;;;;1.80;1.20;;;23.00;28.90;;;;;;5070585;28;20466;-64
2022/03/24 07:14:47;;;;;;;2.75;1.35;;;23.00;28.90;;;;;;5068238;28;20909;-65
2022/03/24 07:17:14;;;;;;;2.37;1.10;;;23.00;28.80;;;;;;5069036;28;20387;-63
2022/03/24 07:19:40;;;;;;;2.05;1.40;;;23.00;28.80;;;;;;5069907;28;20887;-65
2022/03/24 07:22:06;;;;;;;2.28;1.27;;;23.00;28.80;;;;;;5069839;28;20408;-63
2022/03/24 07:24:32;;;;;;;2.30;1.15;;;23.00;28.80;;;;;;5069281;28;20392;-64
2022/03/24 07:26:58;;;;;;;2.40;1.20;;;23.00;28.70;;;;;;5069200;28;20402;-63
2022/03/24 07:29:24;;;;;;;2.38;1.30;;;23.10;28.70;;;;;;5069827;28;20802;-65
2022/03/24 07:31:50;;;;;;;2.05;1.15;;;23.10;28.70;;;;;;5073618;28;20451;-63
2022/03/24 07:34:16;;;;;;;2.28;1.10;;;23.10;28.70;;;;;;5087140;28;20417;-64
2022/03/24 07:36:43;;;;;;;1.95;1.20;;;23.10;28.60;;;;;;5089271;28;20398;-65
2022/03/24 07:39:09;;;;;;;2.53;1.20;;;23.10;28.50;;;;;;5090130;28;20374;-65
2022/03/24 07:41:36;;;;;;;2.50;1.13;;;23.20;28.60;;;;;;5069402;28;20476;-65
2022/03/24 07:44:01;;;;;;;2.50;1.07;;;23.20;28.60;;;;;;5083629;28;20386;-64
2022/03/24 07:46:27;;;;;;;2.17;1.17;;;23.20;28.60;;;;;;5090009;28;20398;-66
2022/03/24 07:48:53;;;;;;;3.05;1.35;;;23.20;28.60;;;;;;5089263;28;20397;-63
2022/03/24 07:51:19;;;;;;;2.80;1.20;;;23.20;28.70;;;;;;5093478;28;20410;-67
2022/03/24 07:53:48;;;;;;;3.30;1.23;;;23.20;28.70;;;;;;5094295;28;21179;-64
2022/03/24 07:56:18;;;;;;;2.20;1.10;;;23.20;28.60;;;;;;5094437;28;20390;-67
2022/03/24 07:58:44;;;;;;;1.87;1.10;;;23.30;28.60;;;;;;5094155;28;20378;-64
2022/03/24 08:01:10;;;;;;;2.65;1.08;;;23.30;28.60;;;;;;5094472;28;20378;-64
2022/03/24 08:03:36;;;;;;;1.80;1.00;;;23.30;28.50;;;;;;5095024;28;20390;-63
2022/03/24 08:06:02;;;;;;;1.90;1.10;;;23.30;28.40;;;;;;5095231;28;20524;-64
2022/03/24 08:08:28;;;;;;;1.92;1.00;;;23.30;28.40;;;;;;5095199;28;20465;-64
2022/03/24 08:10:55;;;;;;;2.20;0.93;;;23.40;28.40;;;;;;5094932;28;20440;-65
2022/03/24 08:13:22;;;;;;;1.10;0.80;;;23.30;28.30;;;;;;5094647;28;20382;-63
2022/03/24 08:15:48;;;;;;;1.60;0.90;;;23.40;28.40;;;;;;5094984;28;20386;-61
2022/03/24 08:18:15;;;;;;;2.53;1.20;;;23.40;28.40;;;;;;5094931;28;20415;-64
2022/03/24 08:20:42;;;;;;;2.40;1.10;;;23.40;28.40;;;;;;5086380;28;20924;-61
2022/03/24 08:23:08;;;;;;;1.50;1.00;;;23.40;28.40;;;;;;5082289;28;20421;-62
2022/03/24 08:25:35;;;;;;;2.35;1.27;;;23.50;28.50;;;;;;5086234;28;20434;-63
2022/03/24 08:28:02;;;;;;;2.88;1.20;;;23.50;28.60;;;;;;5072474;28;20440;-63
2022/03/24 08:30:27;;;;;;;3.50;1.80;;;23.50;28.50;;;;;;5072513;28;20407;-61
2022/03/24 08:32:53;;;;;;;3.60;1.27;;;23.50;28.70;;;;;;5073958;28;20386;-63
2022/03/24 08:35:19;;;;;;;3.85;1.40;;;23.60;28.60;;;;;;5073424;28;20399;-61
2022/03/24 08:37:45;;;;;;;3.63;1.33;;;23.60;28.60;;;;;;5073679;28;20376;-61
2022/03/24 08:40:11;;;;;;;2.72;1.23;;;23.60;28.70;;;;;;5073491;28;20399;-62
2022/03/24 08:42:38;;;;;;;3.33;1.20;;;23.60;28.70;;;;;;5073748;28;20403;-64
2022/03/24 08:45:12;;;;;;;3.58;1.10;;;23.60;28.60;;;;;;5073654;28;20422;-62
2022/03/24 08:47:38;;;;;;;2.55;1.08;;;23.60;28.70;;;;;;5073937;28;20818;-64
2022/03/24 08:50:06;;;;;;;2.80;1.00;;;23.60;28.60;;;;;;5073297;28;20415;-63
2022/03/24 08:52:32;;;;;;;3.53;1.02;;;23.60;29.20;;;;;;5073414;28;20445;-63
2022/03/24 08:54:57;;;;;;;3.35;1.10;;;23.70;30.00;;;;;;5073534;28;20880;-62
2022/03/24 08:57:27;;;;;;;2.37;0.90;;;23.80;30.40;;;;;;5072808;28;20387;-62
2022/03/24 08:59:57;;;;;;;2.60;1.20;;;23.80;29.20;;;;;;5073268;28;20396;-64
2022/03/24 09:02:23;;;;;;;2.00;0.98;;;23.80;29.90;;;;;;5071835;28;20383;-61
2022/03/24 09:04:49;;;;;;;2.75;1.00;;;23.80;29.30;;;;;;5073341;28;20396;-62
2022/03/24 09:07:15;;;;;;;2.93;1.00;;;23.80;28.90;;;;;;5072710;28;20383;-62
2022/03/24 09:09:42;;;;;;;1.80;0.90;;;23.80;28.80;;;;;;5073089;28;20469;-63
2022/03/24 09:12:09;;;;;;;2.85;1.10;;;23.90;28.70;;;;;;5072913;28;20747;-61
2022/03/24 09:14:37;;;;;;;1.60;0.90;;;23.80;29.00;;;;;;5073103;28;20380;-61
2022/03/24 09:17:02;;;;;;;2.53;0.90;;;23.90;28.60;;;;;;5073293;28;20430;-62
2022/03/24 09:19:29;;;;;;;2.90;0.90;;;23.90;28.50;;;;;;5072532;28;20384;-61
2022/03/24 09:21:54;;;;;;;1.55;0.98;;;23.90;28.50;;;;;;5072874;28;20392;-61
2022/03/24 09:24:20;;;;;;;1.60;0.80;;;23.90;28.50;;;;;;5072728;28;20384;-61
2022/03/24 09:26:46;;;;;;;1.85;0.90;;;23.90;28.40;;;;;;5073021;28;20420;-64
2022/03/24 09:29:11;;;;;;;1.40;0.80;;;23.90;28.40;;;;;;5072235;28;20388;-65
2022/03/24 09:31:37;;;;;;;1.70;0.97;;;23.90;28.40;;;;;;5071711;28;20400;-63
2022/03/24 09:34:04;;;;;;;1.40;0.80;;;23.90;28.40;;;;;;5072729;28;20898;-62
2022/03/24 09:36:29;;;;;;;1.30;0.90;;;23.90;28.40;;;;;;5072716;28;20423;-62
2022/03/24 09:38:55;;;;;;;1.55;0.80;;;23.90;28.30;;;;;;5073081;28;20427;-63
2022/03/24 09:41:21;;;;;;;1.38;0.80;;;23.90;28.30;;;;;;5072329;28;20399;-63
2022/03/24 09:43:47;;;;;;;1.67;0.90;;;23.90;28.30;;;;;;5074055;28;20395;-65
2022/03/24 09:46:14;;;;;;;2.00;0.95;;;23.90;28.30;;;;;;5073498;28;20411;-62
2022/03/24 09:48:43;;;;;;;1.90;1.13;;;23.90;28.30;;;;;;5072262;28;20433;-63
2022/03/24 09:51:09;;;;;;;1.83;0.90;;;23.90;28.30;;;;;;5071980;28;20561;-64
2022/03/24 09:53:39;;;;;;;1.90;1.00;;;23.90;28.30;;;;;;5072189;28;20756;-63
2022/03/24 09:56:05;;;;;;;1.27;0.90;;;23.80;28.20;;;;;;5072429;28;20895;-62
2022/03/24 09:58:30;;;;;;;1.50;0.90;;;23.80;28.30;;;;;;5072048;28;20457;-64
2022/03/24 10:00:56;;;;;;;1.20;0.80;;;24.10;29.80;;;;;;5091570;28;20781;-62
2022/03/24 10:03:22;;;;;;;1.80;1.00;;;25.00;28.10;;;;;;5091901;28;20808;-63
2022/03/24 10:06:09;;;;;;;1.30;0.90;;;25.40;27.70;;;;;;5092417;28;20394;-63
2022/03/24 10:08:36;;;;;;;1.52;1.00;;;25.60;27.30;;;;;;5091896;28;20434;-62
2022/03/24 10:11:05;;;;;;;1.38;0.90;;;25.80;27.70;;;;;;5092242;28;20410;-63
2022/03/24 10:13:53;;;;;;;1.63;0.85;;;25.90;27.40;;;;;;5090008;28;20775;-63
2022/03/24 10:16:34;;;;;;;1.70;0.90;;;26.10;27.30;;;;;;5084663;28;20406;-63
2022/03/24 10:19:02;;;;;;;1.70;0.90;;;26.30;27.20;;;;;;5068199;28;20428;-63
2022/03/24 10:21:29;;;;;;;1.67;1.20;;;26.40;27.20;;;;;;5070096;28;20415;-62
2022/03/24 10:23:57;;;;;;;1.52;0.93;;;26.50;27.20;;;;;;5070495;28;20392;-63
2022/03/24 10:26:41;;;;;;;2.30;0.80;;;26.60;27.10;;;;;;5071134;28;20410;-63
2022/03/24 10:29:08;;;;;;;1.25;0.70;;;26.60;27.00;;;;;;5069566;28;20400;-64
2022/03/24 10:31:36;;;;;;;1.70;0.80;;;26.70;27.00;;;;;;5070005;28;20431;-63
2022/03/24 10:34:02;;;;;;;2.00;0.90;;;26.80;26.90;;;;;;5071051;28;20391;-63
2022/03/24 10:36:28;;;;;;;1.80;0.80;;;26.90;26.80;;;;;;5071370;28;20388;-63
2022/03/24 10:39:00;;;;;;;1.20;0.80;;;27.00;26.70;;;;;;5063837;28;20474;-63
2022/03/24 10:41:26;;;;;;;1.50;0.80;;;27.00;26.60;;;;;;5071144;28;20868;-64
2022/03/24 10:43:55;;;;;;;1.75;0.85;;;27.00;26.40;;;;;;5071696;28;20482;-65
2022/03/24 10:46:23;;;;;;;2.10;0.90;;;27.10;26.40;;;;;;5070046;28;20915;-64
2022/03/24 10:48:50;;;;;;;1.20;0.80;;;27.20;26.40;;;;;;5057720;28;20393;-63
2022/03/24 10:51:31;;;;;;;1.13;0.75;;;27.20;26.30;;;;;;5051276;28;20441;-66
2022/03/24 10:54:35;;;;;;;1.50;0.90;;;27.30;26.20;;;;;;5051015;28;20506;-64
2022/03/24 10:57:07;;;;;;;1.50;0.93;;;27.40;26.20;;;;;;5034015;28;20394;-63
2022/03/24 10:59:41;;;;;;;1.30;0.90;;;27.40;26.10;;;;;;5051094;28;20390;-64
2022/03/24 11:02:08;;;;;;;1.80;1.00;;;27.50;26.10;;;;;;5051372;28;20405;-64
2022/03/24 11:04:35;;;;;;;1.25;0.80;;;27.60;26.10;;;;;;5033175;28;20683;-63
2022/03/24 11:07:00;;;;;;;1.20;0.80;;;27.70;26.00;;;;;;5051365;28;20467;-62
2022/03/24 11:09:31;;;;;;;1.70;1.00;;;27.70;25.90;;;;;;5050853;28;20413;-65
2022/03/24 11:12:33;;;;;;;1.30;0.90;;;27.80;25.80;;;;;;5050875;28;20447;-66
2022/03/24 11:15:07;;;;;;;1.15;0.80;;;27.90;25.80;;;;;;5050978;28;20484;-63
2022/03/24 11:17:35;;;;;;;1.52;0.80;;;27.90;25.70;;;;;;5048897;28;20447;-66
2022/03/24 11:20:01;;;;;;;1.40;1.00;;;28.00;25.70;;;;;;5029757;28;20422;-63
2022/03/24 11:22:38;;;;;;;1.20;0.90;;;28.00;25.60;;;;;;5031290;28;20751;-66
2022/03/24 11:25:04;;;;;;;1.97;0.90;;;28.20;25.70;;;;;;5030619;28;20434;-64
2022/03/24 11:27:30;;;;;;;1.40;1.00;;;28.20;25.60;;;;;;5030771;28;20465;-63
2022/03/24 11:29:56;;;;;;;1.47;0.90;;;28.30;25.60;;;;;;5031735;28;20414;-64
2022/03/24 11:32:24;;;;;;;1.40;0.90;;;28.30;25.50;;;;;;5032417;28;20399;-66
2022/03/24 11:34:52;;;;;;;2.30;0.90;;;28.30;25.40;;;;;;5031432;28;20469;-63
2022/03/24 11:37:18;;;;;;;1.40;0.80;;;28.40;25.40;;;;;;5030974;28;20395;-64
2022/03/24 11:40:05;;;;;;;1.60;1.00;;;28.40;25.40;;;;;;5030829;28;20397;-63
2022/03/24 11:42:34;;;;;;;1.50;0.83;;;28.50;25.40;;;;;;5049388;28;20516;-66
2022/03/24 11:45:08;;;;;;;1.58;0.90;;;28.60;25.30;;;;;;5050576;28;20734;-64
2022/03/24 11:47:52;;;;;;;1.48;1.10;;;28.60;25.30;;;;;;5065580;28;20407;-64
2022/03/24 11:50:33;;;;;;;1.20;0.80;;;28.60;25.20;;;;;;5071033;28;20407;-63
2022/03/24 11:53:27;;;;;;;1.58;1.10;;;28.70;25.20;;;;;;5070882;28;20418;-63
2022/03/24 11:55:59;;;;;;;1.75;1.00;;;28.80;25.20;;;;;;5071246;28;20376;-66
2022/03/24 11:58:30;;;;;;;1.70;0.80;;;28.90;25.20;;;;;;5070629;28;20746;-64
2022/03/24 12:00:57;;;;;;;1.63;0.90;;;28.90;25.10;;;;;;5071459;28;21003;-63
2022/03/24 12:03:40;;;;;;;1.30;0.90;;;29.00;25.20;;;;;;5070485;28;20380;-65
2022/03/24 12:06:06;;;;;;;1.20;0.90;;;29.10;25.10;;;;;;5070341;28;20748;-65
2022/03/24 12:08:45;;;;;;;1.70;1.10;;;29.10;25.00;;;;;;5070615;28;20386;-64
2022/03/24 12:11:36;;;;;;;1.53;0.93;;;29.00;25.00;;;;;;5070761;28;20510;-63
2022/03/24 12:14:14;;;;;;;1.35;0.80;;;29.00;24.70;;;;;;5070818;28;20868;-64
2022/03/24 12:17:07;;;;;;;2.25;1.05;;;29.00;25.20;;;;;;5070510;28;20403;-64
2022/03/24 12:19:33;;;;;;;3.17;1.30;;;28.80;25.20;;;;;;5061565;28;20902;-64
2022/03/24 12:21:59;;;;;;;2.33;1.15;;;28.40;25.30;;;;;;5070676;28;20388;-63
2022/03/24 12:24:34;;;;;;;1.52;1.08;;;28.00;25.60;;;;;;5070547;28;20420;-64
2022/03/24 12:27:05;;;;;;;1.55;1.10;;;27.80;26.10;;;;;;5070549;28;20391;-66
2022/03/24 12:29:31;;;;;;;1.77;1.00;;;27.50;26.30;;;;;;5069978;28;20399;-64
2022/03/24 12:32:10;;;;;;;2.17;1.20;;;27.40;26.30;;;;;;5070382;28;20886;-64
2022/03/24 12:34:38;;;;;;;1.58;1.00;;;27.20;26.40;;;;;;5069610;28;20380;-64
2022/03/24 12:37:23;;;;;;;2.75;1.27;;;27.00;26.50;;;;;;5072440;28;20399;-64
2022/03/24 12:40:09;;;;;;;1.52;1.15;;;26.80;26.60;;;;;;5053934;28;20396;-63
2022/03/24 12:42:46;;;;;;;1.75;1.10;;;26.60;26.70;;;;;;5053920;28;20382;-64
2022/03/24 12:45:27;;;;;;;2.22;1.15;;;26.50;26.80;;;;;;5054189;28;20447;-64
2022/03/24 12:48:07;;;;;;;1.60;1.20;;;26.40;26.90;;;;;;5053881;28;20433;-64
2022/03/24 12:50:45;;;;;;;1.55;0.98;;;26.30;26.90;;;;;;5052083;28;20598;-65
2022/03/24 12:53:11;;;;;;;1.98;1.30;;;26.20;27.00;;;;;;5053984;28;20374;-63